createdAt,value
2022-11-28T00:01:28.649Z,6.90
2022-11-28T00:03:57.844Z,6.93
2022-11-28T00:06:27.573Z,6.61
2022-11-28T00:08:56.074Z,6.74
2022-11-28T00:11:23.841Z,7.04
2022-11-28T00:13:51.822Z,6.96
2022-11-28T00:16:22.226Z,7.01
2022-11-28T00:18:50.124Z,7.14
2022-11-28T00:21:19.385Z,7.17
2022-11-28T00:23:49.197Z,7.26
2022-11-28T00:26:20.167Z,7.07
2022-11-28T00:28:48.104Z,6.95
2022-11-28T00:31:16.768Z,6.82
2022-11-28T00:33:45.045Z,6.85
2022-11-28T00:36:13.851Z,6.66
2022-11-28T00:38:43.482Z,6.47
2022-11-28T00:41:13.950Z,6.54
2022-11-28T00:43:42.681Z,6.49
2022-11-28T00:46:11.711Z,6.78
2022-11-28T00:48:39.529Z,6.50
2022-11-28T00:51:08.131Z,6.35
2022-11-28T00:53:36.150Z,6.39
2022-11-28T00:56:06.800Z,6.55
2022-11-28T00:58:35.308Z,6.56
2022-11-28T01:01:12.060Z,6.44
2022-11-28T01:03:40.336Z,6.84
2022-11-28T01:06:08.885Z,6.98
2022-11-28T01:08:37.033Z,7.00
2022-11-28T01:11:12.304Z,7.09
2022-11-28T01:13:40.262Z,7.22
2022-11-28T01:16:09.226Z,7.03
2022-11-28T01:18:37.329Z,6.60
2022-11-28T01:21:05.266Z,6.49
2022-11-28T01:23:33.044Z,6.61
2022-11-28T01:26:02.094Z,6.62
2022-11-28T01:28:31.158Z,6.45
2022-11-28T01:31:04.555Z,6.49
2022-11-28T01:33:32.348Z,6.29
2022-11-28T01:36:01.107Z,6.25
2022-11-28T01:38:29.556Z,6.08
2022-11-28T01:40:58.982Z,6.28
2022-11-28T01:43:26.669Z,6.52
2022-11-28T01:45:56.591Z,6.64
2022-11-28T01:48:27.611Z,6.66
2022-11-28T01:50:59.448Z,6.80
2022-11-28T01:53:30.390Z,6.69
2022-11-28T01:56:02.296Z,6.61
2022-11-28T01:58:31.598Z,6.62
2022-11-28T02:01:01.697Z,6.96
2022-11-28T02:03:34.458Z,7.06
2022-11-28T02:06:02.563Z,6.98
2022-11-28T02:08:33.684Z,6.90
2022-11-28T02:11:21.723Z,6.58
2022-11-28T02:13:58.069Z,6.53
2022-11-28T02:16:43.131Z,6.35
2022-11-28T02:19:47.543Z,6.42
2022-11-28T02:22:20.945Z,6.34
2022-11-28T02:24:58.062Z,6.37
2022-11-28T02:28:05.094Z,6.34
2022-11-28T02:30:42.495Z,5.82
2022-11-28T02:33:18.745Z,5.79
2022-11-28T02:36:03.759Z,5.83
2022-11-28T02:38:44.031Z,5.80
2022-11-28T02:41:22.661Z,5.26
2022-11-28T02:44:00.338Z,4.91
2022-11-28T02:46:35.153Z,6.13
2022-11-28T02:49:06.770Z,6.66
2022-11-28T02:51:41.309Z,7.05
2022-11-28T02:54:12.322Z,6.52
2022-11-28T02:56:40.373Z,6.52
2022-11-28T02:59:30.982Z,5.94
2022-11-28T03:01:59.906Z,6.33
2022-11-28T03:04:35.855Z,5.93
2022-11-28T03:07:14.966Z,6.09
2022-11-28T03:09:56.093Z,6.53
2022-11-28T03:12:29.631Z,5.72
2022-11-28T03:14:59.900Z,6.46
2022-11-28T03:17:37.727Z,7.14
2022-11-28T03:20:27.390Z,7.53
2022-11-28T03:23:10.930Z,7.48
2022-11-28T03:25:49.529Z,6.85
2022-11-28T03:28:24.580Z,6.96
2022-11-28T03:30:59.093Z,7.38
2022-11-28T03:33:28.964Z,7.35
2022-11-28T03:36:04.109Z,7.23
2022-11-28T03:38:37.304Z,7.53
2022-11-28T03:41:11.365Z,7.08
2022-11-28T03:43:43.861Z,6.94
2022-11-28T03:46:17.049Z,6.47
2022-11-28T03:48:49.015Z,6.40
2022-11-28T03:51:21.672Z,6.68
2022-11-28T03:53:52.487Z,6.29
2022-11-28T03:56:26.204Z,6.36
2022-11-28T03:58:59.057Z,6.28
2022-11-28T04:01:33.236Z,6.42
2022-11-28T04:04:12.645Z,6.35
2022-11-28T04:06:53.195Z,6.51
2022-11-28T04:09:29.647Z,6.71
2022-11-28T04:12:07.070Z,6.82
2022-11-28T04:14:40.860Z,7.01
2022-11-28T04:17:16.158Z,6.93
2022-11-28T04:19:49.846Z,7.14
2022-11-28T04:22:22.554Z,7.35
2022-11-28T04:24:54.714Z,7.21
2022-11-28T04:27:28.664Z,7.12
2022-11-28T04:30:01.640Z,7.05
2022-11-28T04:32:32.236Z,6.77
2022-11-28T04:35:05.784Z,7.03
2022-11-28T04:37:38.270Z,7.21
2022-11-28T04:40:09.906Z,7.28
2022-11-28T04:42:43.412Z,7.02
2022-11-28T04:45:15.359Z,6.99
2022-11-28T04:47:44.179Z,7.19
2022-11-28T04:50:13.387Z,7.09
2022-11-28T04:52:50.486Z,7.59
2022-11-28T04:55:28.967Z,7.83
2022-11-28T04:58:04.407Z,7.55
2022-11-28T05:00:35.487Z,7.39
2022-11-28T05:03:04.979Z,7.28
2022-11-28T05:05:32.924Z,6.84
2022-11-28T05:08:02.148Z,6.56
2022-11-28T05:10:30.642Z,6.75
2022-11-28T05:12:58.320Z,7.17
2022-11-28T05:15:25.980Z,7.29
2022-11-28T05:17:53.720Z,7.62
2022-11-28T05:20:21.383Z,7.08
2022-11-28T05:22:49.135Z,7.24
2022-11-28T05:25:18.518Z,7.73
2022-11-28T05:27:46.291Z,7.30
2022-11-28T05:30:15.050Z,7.28
2022-11-28T05:32:42.815Z,7.49
2022-11-28T05:35:10.877Z,7.15
2022-11-28T05:37:39.344Z,7.56
2022-11-28T05:40:09.417Z,7.81
2022-11-28T05:42:38.672Z,7.92
2022-11-28T05:45:07.184Z,8.01
2022-11-28T05:47:35.952Z,7.96
2022-11-28T05:50:04.070Z,7.50
2022-11-28T05:52:32.554Z,7.85
2022-11-28T05:55:01.494Z,7.61
2022-11-28T05:57:31.903Z,7.56
2022-11-28T06:00:00.988Z,7.76
2022-11-28T06:02:28.799Z,7.80
2022-11-28T06:04:56.598Z,7.90
2022-11-28T06:07:24.481Z,8.06
2022-11-28T06:09:52.181Z,7.78
2022-11-28T06:12:19.947Z,7.71
2022-11-28T06:14:47.734Z,7.85
2022-11-28T06:17:16.844Z,7.84
2022-11-28T06:19:44.908Z,7.81
2022-11-28T06:22:12.800Z,7.86
2022-11-28T06:24:40.463Z,8.04
2022-11-28T06:27:08.195Z,7.91
2022-11-28T06:29:35.930Z,7.39
2022-11-28T06:32:03.783Z,7.47
2022-11-28T06:34:32.835Z,7.21
2022-11-28T06:37:00.551Z,6.53
2022-11-28T06:39:28.288Z,7.16
2022-11-28T06:41:56.117Z,7.38
2022-11-28T06:44:23.834Z,7.66
2022-11-28T06:46:51.535Z,7.74
2022-11-28T06:49:19.219Z,7.10
2022-11-28T06:51:48.255Z,7.48
2022-11-28T06:54:15.939Z,7.24
2022-11-28T06:56:43.861Z,7.23
2022-11-28T06:59:12.653Z,7.23
2022-11-28T07:01:40.483Z,7.25
2022-11-28T07:04:08.401Z,6.86
2022-11-28T07:06:36.083Z,7.04
2022-11-28T07:09:05.389Z,7.19
2022-11-28T07:11:33.867Z,7.46
2022-11-28T07:14:02.953Z,7.44
2022-11-28T07:16:32.755Z,6.63
2022-11-28T07:19:01.202Z,6.77
2022-11-28T07:21:30.172Z,7.32
2022-11-28T07:23:59.119Z,7.13
2022-11-28T07:26:28.305Z,7.32
2022-11-28T07:28:58.212Z,7.59
2022-11-28T07:31:31.644Z,6.95
2022-11-28T07:34:01.739Z,7.25
2022-11-28T07:36:30.317Z,7.14
2022-11-28T07:39:00.486Z,7.05
2022-11-28T07:41:30.088Z,7.39
2022-11-28T07:43:59.511Z,7.34
2022-11-28T07:46:29.015Z,7.24
2022-11-28T07:48:57.018Z,6.93
2022-11-28T07:51:27.281Z,6.69
2022-11-28T07:53:55.387Z,6.71
2022-11-28T07:56:25.247Z,6.42
2022-11-28T07:58:57.888Z,6.63
2022-11-28T08:01:30.504Z,6.81
2022-11-28T08:03:58.746Z,7.00
2022-11-28T08:06:28.817Z,6.49
2022-11-28T08:08:57.698Z,6.91
2022-11-28T08:11:26.083Z,6.69
2022-11-28T08:13:57.915Z,7.26
2022-11-28T08:16:28.283Z,7.19
2022-11-28T08:18:57.297Z,7.12
2022-11-28T08:21:26.764Z,7.19
2022-11-28T08:23:56.012Z,7.64
2022-11-28T08:26:29.007Z,7.39
2022-11-28T08:28:59.731Z,7.35
2022-11-28T08:31:30.153Z,7.82
2022-11-28T08:34:00.698Z,7.92
2022-11-28T08:36:29.448Z,7.72
2022-11-28T08:39:09.816Z,8.04
2022-11-28T08:41:44.884Z,7.73
2022-11-28T08:44:14.119Z,7.66
2022-11-28T08:46:42.053Z,7.69
2022-11-28T08:49:09.824Z,7.60
2022-11-28T08:51:37.823Z,7.89
2022-11-28T08:54:05.995Z,7.68
2022-11-28T08:56:33.816Z,7.67
2022-11-28T08:59:01.698Z,8.03
2022-11-28T09:01:31.246Z,7.73
2022-11-28T09:03:59.222Z,7.21
2022-11-28T09:06:27.013Z,7.38
2022-11-28T09:08:54.783Z,7.72
2022-11-28T09:11:24.059Z,7.42
2022-11-28T09:13:52.228Z,7.77
2022-11-28T09:16:20.238Z,8.26
2022-11-28T09:18:49.396Z,8.47
2022-11-28T09:21:17.238Z,8.38
2022-11-28T09:23:46.095Z,7.93
2022-11-28T09:26:15.860Z,7.92
2022-11-28T09:28:43.766Z,8.45
2022-11-28T09:31:13.329Z,8.24
2022-11-28T09:33:41.214Z,8.25
2022-11-28T09:36:12.487Z,7.63
2022-11-28T09:38:40.621Z,7.13
2022-11-28T09:41:39.670Z,7.94
2022-11-28T09:44:15.347Z,8.19
2022-11-28T09:46:44.347Z,8.56
2022-11-28T09:49:23.230Z,8.77
2022-11-28T09:51:56.833Z,8.81
2022-11-28T09:54:34.206Z,8.54
2022-11-28T09:57:04.900Z,8.27
2022-11-28T09:59:32.995Z,7.68
2022-11-28T10:02:19.985Z,8.45
2022-11-28T10:04:57.230Z,8.91
2022-11-28T10:07:33.953Z,9.19
2022-11-28T10:10:10.844Z,8.48
2022-11-28T10:12:47.924Z,8.29
2022-11-28T10:15:29.057Z,8.86
2022-11-28T10:18:10.162Z,8.99
2022-11-28T10:20:40.433Z,8.72
2022-11-28T10:23:17.499Z,8.33
2022-11-28T10:25:50.522Z,8.41
2022-11-28T10:28:23.122Z,8.82
2022-11-28T10:30:58.446Z,8.80
2022-11-28T10:33:31.491Z,9.33
2022-11-28T10:36:01.513Z,9.55
2022-11-28T10:38:35.114Z,9.55
2022-11-28T10:41:09.838Z,9.69
2022-11-28T10:43:44.592Z,9.37
2022-11-28T10:46:30.445Z,9.57
2022-11-28T10:49:11.561Z,9.73
2022-11-28T10:51:50.972Z,9.80
2022-11-28T10:54:29.859Z,9.40
2022-11-28T10:57:05.322Z,9.56
2022-11-28T10:59:45.658Z,9.42
2022-11-28T11:02:23.049Z,8.78
2022-11-28T11:04:50.976Z,8.65
2022-11-28T11:07:29.525Z,8.71
2022-11-28T11:10:03.298Z,7.28
2022-11-28T11:12:33.243Z,8.31
2022-11-28T11:15:16.993Z,9.25
2022-11-28T11:17:44.779Z,9.08
2022-11-28T11:20:35.381Z,9.52
2022-11-28T11:23:13.779Z,8.40
2022-11-28T11:25:52.286Z,8.81
2022-11-28T11:28:28.961Z,9.08
2022-11-28T11:31:01.110Z,8.28
2022-11-28T11:33:33.679Z,9.05
2022-11-28T11:36:01.528Z,9.96
2022-11-28T11:38:36.194Z,10.34
2022-11-28T11:41:29.441Z,9.78
2022-11-28T11:43:57.680Z,9.40
2022-11-28T11:46:25.553Z,9.00
2022-11-28T11:48:54.477Z,9.48
2022-11-28T11:51:24.732Z,9.53
2022-11-28T11:54:06.767Z,9.71
2022-11-28T11:56:39.207Z,9.41
2022-11-28T11:59:15.107Z,10.05
2022-11-28T12:01:45.993Z,9.71
2022-11-28T12:04:43.727Z,9.69
2022-11-28T12:07:19.202Z,9.76
2022-11-28T12:09:50.331Z,10.01
2022-11-28T12:12:23.913Z,10.33
2022-11-28T12:14:52.692Z,10.33
2022-11-28T12:17:48.827Z,10.49
2022-11-28T12:20:40.179Z,10.55
2022-11-28T12:23:22.672Z,10.81
2022-11-28T12:25:56.633Z,10.57
2022-11-28T12:28:37.418Z,10.67
2022-11-28T12:31:13.613Z,10.60
2022-11-28T12:33:53.898Z,10.53
2022-11-28T12:36:28.174Z,10.52
2022-11-28T12:39:18.838Z,10.65
2022-11-28T12:42:12.897Z,10.63
2022-11-28T12:45:07.622Z,10.43
2022-11-28T12:47:43.627Z,10.38
2022-11-28T12:50:22.634Z,10.66
2022-11-28T12:53:00.886Z,10.30
2022-11-28T12:55:37.841Z,10.53
2022-11-28T12:58:13.483Z,10.53
2022-11-28T13:00:51.957Z,10.43
2022-11-28T13:03:37.940Z,10.14
2022-11-28T13:06:20.276Z,10.50
2022-11-28T13:09:04.503Z,10.69
2022-11-28T13:11:47.290Z,10.55
2022-11-28T13:14:27.158Z,10.71
2022-11-28T13:16:58.656Z,10.63
2022-11-28T13:19:39.307Z,10.61
2022-11-28T13:22:12.521Z,10.72
2022-11-28T13:24:44.954Z,10.73
2022-11-28T13:27:22.085Z,10.97
2022-11-28T13:29:59.924Z,11.07
2022-11-28T13:32:37.596Z,11.06
2022-11-28T13:35:06.359Z,10.57
2022-11-28T13:40:36.491Z,10.71
2022-11-28T13:43:08.643Z,10.70
2022-11-28T13:45:39.636Z,10.62
2022-11-28T13:51:34.657Z,10.68
2022-11-28T13:54:45.799Z,10.66
2022-11-28T13:57:37.540Z,10.27
2022-11-28T14:00:22.824Z,10.48
2022-11-28T14:02:53.573Z,10.70
2022-11-28T14:05:29.460Z,10.43
2022-11-28T14:07:59.181Z,10.36
2022-11-28T14:10:41.620Z,10.59
2022-11-28T14:13:24.673Z,10.32
2022-11-28T14:16:03.682Z,10.48
2022-11-28T14:18:56.741Z,10.33
2022-11-28T14:21:40.018Z,10.48
2022-11-28T14:24:18.257Z,10.60
2022-11-28T14:26:47.237Z,10.68
2022-11-28T14:29:24.067Z,10.63
2022-11-28T14:32:21.639Z,10.73
2022-11-28T14:34:45.021Z,11.12
2022-11-28T14:37:50.240Z,11.01
2022-11-28T14:41:08.932Z,10.56
2022-11-28T14:43:40.464Z,10.68
2022-11-28T14:46:40.192Z,10.61
2022-11-28T14:49:18.854Z,10.44
2022-11-28T14:52:37.271Z,10.40
2022-11-28T14:55:01.312Z,10.32
2022-11-28T14:57:32.644Z,10.42
2022-11-28T15:00:15.136Z,10.49
2022-11-28T15:03:08.806Z,10.47
2022-11-28T15:05:46.001Z,10.52
2022-11-28T15:08:42.292Z,10.12
2022-11-28T15:11:39.511Z,10.18
2022-11-28T15:14:19.982Z,10.22
2022-11-28T15:16:53.130Z,9.88
2022-11-28T15:19:27.717Z,9.76
2022-11-28T15:21:56.773Z,9.56
2022-11-28T15:24:29.629Z,9.78
2022-11-28T15:26:59.077Z,9.72
2022-11-28T15:29:29.113Z,9.80
2022-11-28T15:31:59.180Z,9.69
2022-11-28T15:34:29.832Z,9.81
2022-11-28T15:37:00.548Z,9.58
2022-11-28T15:39:34.718Z,9.15
2022-11-28T15:42:06.628Z,9.30
2022-11-28T15:44:36.456Z,9.52
2022-11-28T15:47:06.608Z,9.18
2022-11-28T15:49:40.525Z,9.07
2022-11-28T15:52:08.634Z,9.03
2022-11-28T15:54:38.659Z,8.88
2022-11-28T15:57:07.323Z,8.61
2022-11-28T15:59:37.900Z,8.53
2022-11-28T16:02:18.193Z,8.47
2022-11-28T16:04:46.631Z,8.42
2022-11-28T16:07:17.030Z,8.44
2022-11-28T16:09:55.393Z,8.35
2022-11-28T16:12:23.407Z,8.23
2022-11-28T16:14:53.227Z,8.20
2022-11-28T16:17:26.987Z,8.35
2022-11-28T16:19:56.427Z,8.47
2022-11-28T16:22:31.386Z,8.39
2022-11-28T16:25:11.781Z,8.42
2022-11-28T16:27:42.645Z,8.54
2022-11-28T16:30:28.332Z,8.49
2022-11-28T16:32:57.918Z,8.86
2022-11-28T16:35:28.544Z,9.04
2022-11-28T16:38:05.748Z,9.14
2022-11-28T16:40:33.818Z,9.16
2022-11-28T16:43:04.223Z,9.37
2022-11-28T16:45:35.006Z,9.60
2022-11-28T16:48:12.543Z,9.63
2022-11-28T16:50:52.157Z,9.52
2022-11-28T16:53:44.991Z,9.63
2022-11-28T16:56:25.377Z,9.77
2022-11-28T16:58:53.506Z,10.00
2022-11-28T17:01:22.268Z,9.97
2022-11-28T17:03:51.999Z,10.06
2022-11-28T17:06:29.857Z,10.22
2022-11-28T17:09:02.780Z,10.04
2022-11-28T17:11:34.230Z,9.99
2022-11-28T17:14:06.212Z,9.85
2022-11-28T17:16:39.255Z,9.94
2022-11-28T17:19:07.411Z,9.79
2022-11-28T17:21:39.158Z,9.99
2022-11-28T17:24:16.003Z,10.30
2022-11-28T17:26:44.018Z,10.53
2022-11-28T17:29:22.113Z,9.99
2022-11-28T17:31:50.223Z,10.27
2022-11-28T17:34:20.020Z,10.46
2022-11-28T17:36:47.862Z,10.38
2022-11-28T17:39:18.140Z,8.95
2022-11-28T17:41:46.844Z,8.94
2022-11-28T17:44:18.254Z,9.07
2022-11-28T17:46:46.436Z,9.25
2022-11-28T17:49:14.446Z,9.44
2022-11-28T17:51:43.099Z,9.52
2022-11-28T17:54:11.992Z,9.78
2022-11-28T17:56:41.040Z,9.97
2022-11-28T17:59:10.171Z,10.02
2022-11-28T18:01:39.162Z,10.07
2022-11-28T18:04:07.847Z,10.02
2022-11-28T18:06:35.882Z,10.20
2022-11-28T18:09:11.745Z,10.35
2022-11-28T18:11:41.627Z,10.38
2022-11-28T18:14:09.912Z,10.27
2022-11-28T18:16:40.126Z,9.83
2022-11-28T18:19:08.256Z,9.70
2022-11-28T18:21:36.007Z,9.79
2022-11-28T18:24:04.593Z,9.61
2022-11-28T18:26:32.401Z,9.85
2022-11-28T18:29:01.657Z,10.06
2022-11-28T18:31:31.220Z,10.03
2022-11-28T18:34:02.646Z,10.19
2022-11-28T18:36:35.491Z,10.09
2022-11-28T18:39:06.070Z,10.39
2022-11-28T18:41:34.258Z,10.31
2022-11-28T18:44:05.375Z,10.17
2022-11-28T18:46:34.053Z,10.00
2022-11-28T18:49:01.923Z,9.20
2022-11-28T18:51:31.402Z,9.23
2022-11-28T18:54:02.364Z,8.88
2022-11-28T18:56:31.147Z,8.61
2022-11-28T18:58:59.486Z,8.18
2022-11-28T19:01:31.294Z,8.20
2022-11-28T19:04:01.514Z,8.28
2022-11-28T19:06:30.848Z,7.97
2022-11-28T19:09:00.963Z,8.07
2022-11-28T19:11:30.278Z,8.30
2022-11-28T19:13:58.864Z,8.62
2022-11-28T19:16:30.870Z,8.80
2022-11-28T19:18:59.168Z,8.94
2022-11-28T19:21:29.611Z,9.06
2022-11-28T19:23:58.163Z,9.11
2022-11-28T19:26:28.379Z,9.15
2022-11-28T19:28:59.546Z,9.18
2022-11-28T19:31:31.038Z,9.36
2022-11-28T19:34:02.180Z,9.57
2022-11-28T19:36:33.989Z,9.75
2022-11-28T19:39:02.468Z,9.87
2022-11-28T19:41:32.276Z,9.81
2022-11-28T19:44:00.634Z,9.81
2022-11-28T19:46:35.512Z,9.95
2022-11-28T19:49:05.584Z,10.03
2022-11-28T19:51:34.657Z,10.11
2022-11-28T19:54:03.835Z,10.16
2022-11-28T19:56:34.275Z,10.13
2022-11-28T19:59:03.035Z,10.26
2022-11-28T20:01:39.108Z,10.10
2022-11-28T20:04:07.668Z,10.36
2022-11-28T20:06:36.122Z,10.45
2022-11-28T20:09:07.633Z,10.41
2022-11-28T20:11:38.153Z,10.54
2022-11-28T20:14:08.040Z,10.65
2022-11-28T20:16:38.191Z,10.69
2022-11-28T20:19:07.044Z,10.70
2022-11-28T20:21:35.836Z,10.71
2022-11-28T20:24:08.469Z,10.54
2022-11-28T20:26:38.395Z,10.43
2022-11-28T20:29:06.691Z,10.54
2022-11-28T20:31:38.469Z,10.63
2022-11-28T20:34:07.170Z,10.58
2022-11-28T20:36:35.281Z,9.56
2022-11-28T20:39:04.312Z,7.99
2022-11-28T20:41:34.169Z,8.33
2022-11-28T20:44:02.486Z,8.68
2022-11-28T20:46:32.059Z,8.92
2022-11-28T20:49:03.791Z,8.83
2022-11-28T20:51:34.151Z,9.08
2022-11-28T20:54:04.642Z,8.86
2022-11-28T20:56:51.645Z,8.65
2022-11-28T20:59:22.058Z,8.74
2022-11-28T21:01:49.930Z,9.03
2022-11-28T21:04:19.869Z,9.52
2022-11-28T21:06:49.129Z,9.67
2022-11-28T21:09:20.708Z,9.73
2022-11-28T21:11:58.563Z,9.78
2022-11-28T21:14:30.507Z,10.14
2022-11-28T21:16:59.651Z,10.38
2022-11-28T21:19:37.070Z,10.45
2022-11-28T21:22:10.890Z,10.21
2022-11-28T21:24:39.198Z,9.99
2022-11-28T21:27:07.072Z,9.84
2022-11-28T21:29:34.849Z,9.96
2022-11-28T21:32:02.720Z,9.77
2022-11-28T21:34:33.759Z,9.98
2022-11-28T21:37:01.540Z,10.15
2022-11-28T21:39:29.340Z,10.04
2022-11-28T21:41:57.121Z,10.20
2022-11-28T21:44:26.595Z,9.95
2022-11-28T21:46:54.331Z,9.83
2022-11-28T21:49:22.982Z,9.71
2022-11-28T21:51:55.105Z,9.69
2022-11-28T21:54:24.960Z,9.58
2022-11-28T21:56:53.499Z,9.79
2022-11-28T21:59:22.774Z,9.71
2022-11-28T22:01:50.997Z,9.72
2022-11-28T22:04:21.875Z,9.66
2022-11-28T22:06:50.741Z,9.89
2022-11-28T22:09:20.540Z,9.93
2022-11-28T22:11:48.309Z,9.73
2022-11-28T22:14:17.890Z,9.71
2022-11-28T22:16:45.690Z,9.42
2022-11-28T22:19:15.275Z,9.79
2022-11-28T22:21:51.685Z,9.89
2022-11-28T22:24:22.564Z,9.99
2022-11-28T22:26:50.506Z,10.03
2022-11-28T22:29:19.218Z,9.97
2022-11-28T22:31:47.193Z,9.88
2022-11-28T22:34:15.277Z,9.78
2022-11-28T22:36:43.248Z,9.90
2022-11-28T22:39:12.345Z,9.96
2022-11-28T22:41:41.416Z,9.93
2022-11-28T22:44:11.725Z,9.83
2022-11-28T22:46:39.726Z,9.91
2022-11-28T22:49:10.247Z,10.07
2022-11-28T22:51:39.572Z,9.78
2022-11-28T22:54:07.466Z,9.58
2022-11-28T22:56:35.509Z,9.58
2022-11-28T22:59:05.736Z,9.70
2022-11-28T23:01:35.096Z,9.67
2022-11-28T23:04:03.270Z,9.78
2022-11-28T23:06:32.574Z,9.84
2022-11-28T23:09:02.995Z,9.66
2022-11-28T23:11:33.928Z,9.50
2022-11-28T23:14:02.665Z,9.45
2022-11-28T23:16:33.700Z,9.49
2022-11-28T23:19:03.923Z,9.64
2022-11-28T23:21:34.760Z,9.48
2022-11-28T23:24:02.739Z,9.55
2022-11-28T23:26:31.786Z,9.67
2022-11-28T23:29:00.692Z,9.59
2022-11-28T23:31:32.973Z,9.71
2022-11-28T23:34:01.775Z,9.74
2022-11-28T23:36:33.776Z,9.76
2022-11-28T23:39:10.405Z,9.72
2022-11-28T23:41:38.187Z,9.76
2022-11-28T23:44:06.466Z,9.77
2022-11-28T23:46:35.780Z,9.63
2022-11-28T23:49:05.449Z,9.61
2022-11-28T23:51:34.088Z,9.76
2022-11-28T23:54:01.999Z,9.70
2022-11-28T23:56:33.673Z,9.56
2022-11-28T23:59:03.394Z,9.46
